sensor_id;sensor_type;location;lat;lon;timestamp;pressure;altitude;pressure_sealevel;temperature
64394;BMP280;50712;49.506;10.400;2022-12-07T00:00:20;98028.19;;;6.07
64394;BMP280;50712;49.506;10.400;2022-12-07T00:00:50;98035.56;;;6.07
64394;BMP280;50712;49.506;10.400;2022-12-07T00:01:21;98031.31;;;6.06
64394;BMP280;50712;49.506;10.400;2022-12-07T00:01:52;98030.91;;;6.07
64394;BMP280;50712;49.506;10.400;2022-12-07T00:02:22;98033.63;;;6.07
64394;BMP280;50712;49.506;10.400;2022-12-07T00:02:53;98028.97;;;6.08
64394;BMP280;50712;49.506;10.400;2022-12-07T00:03:23;98026.28;;;6.08
64394;BMP280;50712;49.506;10.400;2022-12-07T00:03:54;98028.97;;;6.08
64394;BMP280;50712;49.506;10.400;2022-12-07T00:04:27;98026.28;;;6.08
64394;BMP280;50712;49.506;10.400;2022-12-07T00:04:57;98026.28;;;6.08
64394;BMP280;50712;49.506;10.400;2022-12-07T00:05:27;98027.03;;;6.08
64394;BMP280;50712;49.506;10.400;2022-12-07T00:05:59;98020.88;;;6.08
64394;BMP280;50712;49.506;10.400;2022-12-07T00:06:33;98023.56;;;6.08
64394;BMP280;50712;49.506;10.400;2022-12-07T00:07:04;98023.56;;;6.08
64394;BMP280;50712;49.506;10.400;2022-12-07T00:07:34;98026.28;;;6.08
64394;BMP280;50712;49.506;10.400;2022-12-07T00:08:04;98023.56;;;6.08
64394;BMP280;50712;49.506;10.400;2022-12-07T00:08:34;98025.09;;;6.09
64394;BMP280;50712;49.506;10.400;2022-12-07T00:09:05;98025.09;;;6.09
64394;BMP280;50712;49.506;10.400;2022-12-07T00:09:36;98022.41;;;6.09
64394;BMP280;50712;49.506;10.400;2022-12-07T00:10:06;98028.56;;;6.09
64394;BMP280;50712;49.506;10.400;2022-12-07T00:10:36;98016.22;;;6.08
64394;BMP280;50712;49.506;10.400;2022-12-07T00:11:11;98020.88;;;6.08
64394;BMP280;50712;49.506;10.400;2022-12-07T00:11:41;98017.00;;;6.09
64394;BMP280;50712;49.506;10.400;2022-12-07T00:12:11;98012.75;;;6.08
64394;BMP280;50712;49.506;10.400;2022-12-07T00:12:41;98022.41;;;6.09
64394;BMP280;50712;49.506;10.400;2022-12-07T00:13:12;98015.44;;;6.08
64394;BMP280;50712;49.506;10.400;2022-12-07T00:13:42;98017.38;;;6.07
64394;BMP280;50712;49.506;10.400;2022-12-07T00:14:13;98022.78;;;6.07
64394;BMP280;50712;49.506;10.400;2022-12-07T00:14:44;98015.84;;;6.06
64394;BMP280;50712;49.506;10.400;2022-12-07T00:15:14;98012.38;;;6.06
64394;BMP280;50712;49.506;10.400;2022-12-07T00:15:44;98015.84;;;6.06
64394;BMP280;50712;49.506;10.400;2022-12-07T00:16:15;98017.78;;;6.06
64394;BMP280;50712;49.506;10.400;2022-12-07T00:16:48;98018.56;;;6.06
64394;BMP280;50712;49.506;10.400;2022-12-07T00:17:18;98020.47;;;6.06
64394;BMP280;50712;49.506;10.400;2022-12-07T00:17:48;98022.44;;;6.05
64394;BMP280;50712;49.506;10.400;2022-12-07T00:18:18;98017.78;;;6.06
64394;BMP280;50712;49.506;10.400;2022-12-07T00:18:49;98014.34;;;6.05
64394;BMP280;50712;49.506;10.400;2022-12-07T00:19:19;98012.03;;;6.04
64394;BMP280;50712;49.506;10.400;2022-12-07T00:19:49;98018.97;;;6.05
64394;BMP280;50712;49.506;10.400;2022-12-07T00:20:20;98014.72;;;6.04
64394;BMP280;50712;49.506;10.400;2022-12-07T00:20:50;98013.56;;;6.05
64394;BMP280;50712;49.506;10.400;2022-12-07T00:21:27;98013.56;;;6.05
64394;BMP280;50712;49.506;10.400;2022-12-07T00:21:57;98012.03;;;6.04
64394;BMP280;50712;49.506;10.400;2022-12-07T00:22:28;98009.31;;;6.04
64394;BMP280;50712;49.506;10.400;2022-12-07T00:22:58;98016.28;;;6.05
64394;BMP280;50712;49.506;10.400;2022-12-07T00:23:28;98015.50;;;6.04
64394;BMP280;50712;49.506;10.400;2022-12-07T00:23:59;98023.63;;;6.04
64394;BMP280;50712;49.506;10.400;2022-12-07T00:24:29;98013.19;;;6.03
64394;BMP280;50712;49.506;10.400;2022-12-07T00:25:00;98014.72;;;6.04
64394;BMP280;50712;49.506;10.400;2022-12-07T00:25:30;98014.72;;;6.04
64394;BMP280;50712;49.506;10.400;2022-12-07T00:26:03;98017.44;;;6.04
64394;BMP280;50712;49.506;10.400;2022-12-07T00:26:38;98020.13;;;6.04
64394;BMP280;50712;49.506;10.400;2022-12-07T00:27:09;98014.72;;;6.04
64394;BMP280;50712;49.506;10.400;2022-12-07T00:27:40;98012.78;;;6.04
64394;BMP280;50712;49.506;10.400;2022-12-07T00:28:10;98016.66;;;6.03
64394;BMP280;50712;49.506;10.400;2022-12-07T00:28:44;98009.31;;;6.04
64394;BMP280;50712;49.506;10.400;2022-12-07T00:29:15;98010.84;;;6.05
64394;BMP280;50712;49.506;10.400;2022-12-07T00:29:46;98013.56;;;6.05
64394;BMP280;50712;49.506;10.400;2022-12-07T00:30:16;98020.47;;;6.06
64394;BMP280;50712;49.506;10.400;2022-12-07T00:30:46;98013.56;;;6.05
64394;BMP280;50712;49.506;10.400;2022-12-07T00:31:17;98013.16;;;6.06
64394;BMP280;50712;49.506;10.400;2022-12-07T00:31:48;98012.38;;;6.06
64394;BMP280;50712;49.506;10.400;2022-12-07T00:32:19;98015.84;;;6.06
64394;BMP280;50712;49.506;10.400;2022-12-07T00:32:49;98013.91;;;6.07
64394;BMP280;50712;49.506;10.400;2022-12-07T00:33:19;98011.22;;;6.07
64394;BMP280;50712;49.506;10.400;2022-12-07T00:33:50;98006.97;;;6.06
64394;BMP280;50712;49.506;10.400;2022-12-07T00:34:20;98003.09;;;6.07
64394;BMP280;50712;49.506;10.400;2022-12-07T00:34:51;98009.66;;;6.06
64394;BMP280;50712;49.506;10.400;2022-12-07T00:35:21;98007.72;;;6.06
64394;BMP280;50712;49.506;10.400;2022-12-07T00:35:55;98006.97;;;6.06
64394;BMP280;50712;49.506;10.400;2022-12-07T00:36:25;98010.44;;;6.06
64394;BMP280;50712;49.506;10.400;2022-12-07T00:36:55;98010.44;;;6.06
64394;BMP280;50712;49.506;10.400;2022-12-07T00:37:25;98004.25;;;6.06
64394;BMP280;50712;49.506;10.400;2022-12-07T00:37:56;98003.53;;;6.05
64394;BMP280;50712;49.506;10.400;2022-12-07T00:38:32;98008.16;;;6.05
64394;BMP280;50712;49.506;10.400;2022-12-07T00:39:02;98010.84;;;6.05
64394;BMP280;50712;49.506;10.400;2022-12-07T00:39:33;98010.84;;;6.05
64394;BMP280;50712;49.506;10.400;2022-12-07T00:40:03;98007.38;;;6.04
64394;BMP280;50712;49.506;10.400;2022-12-07T00:40:33;98010.09;;;6.04
64394;BMP280;50712;49.506;10.400;2022-12-07T00:41:05;98010.09;;;6.04
64394;BMP280;50712;49.506;10.400;2022-12-07T00:41:35;98009.31;;;6.04
64394;BMP280;50712;49.506;10.400;2022-12-07T00:42:05;98004.69;;;6.04
64394;BMP280;50712;49.506;10.400;2022-12-07T00:42:36;98015.50;;;6.04
64394;BMP280;50712;49.506;10.400;2022-12-07T00:43:06;98006.63;;;6.04
64394;BMP280;50712;49.506;10.400;2022-12-07T00:43:36;98009.31;;;6.04
64394;BMP280;50712;49.506;10.400;2022-12-07T00:44:06;98005.84;;;6.03
64394;BMP280;50712;49.506;10.400;2022-12-07T00:44:36;98011.25;;;6.03
64394;BMP280;50712;49.506;10.400;2022-12-07T00:45:07;98009.31;;;6.04
64394;BMP280;50712;49.506;10.400;2022-12-07T00:45:37;98013.19;;;6.03
64394;BMP280;50712;49.506;10.400;2022-12-07T00:46:08;98007.78;;;6.03
64394;BMP280;50712;49.506;10.400;2022-12-07T00:46:38;98005.50;;;6.01
64394;BMP280;50712;49.506;10.400;2022-12-07T00:47:08;98009.75;;;6.02
64394;BMP280;50712;49.506;10.400;2022-12-07T00:47:39;98004.34;;;6.02
64394;BMP280;50712;49.506;10.400;2022-12-07T00:48:09;98007.03;;;6.02
64394;BMP280;50712;49.506;10.400;2022-12-07T00:48:39;98008.97;;;6.02
64394;BMP280;50712;49.506;10.400;2022-12-07T00:49:09;98011.69;;;6.02
64394;BMP280;50712;49.506;10.400;2022-12-07T00:49:39;98004.34;;;6.02
64394;BMP280;50712;49.506;10.400;2022-12-07T00:50:10;97997.38;;;6.01
64394;BMP280;50712;49.506;10.400;2022-12-07T00:50:40;98002.78;;;6.01
64394;BMP280;50712;49.506;10.400;2022-12-07T00:51:14;98008.19;;;6.01
64394;BMP280;50712;49.506;10.400;2022-12-07T00:51:44;98000.09;;;6.01
64394;BMP280;50712;49.506;10.400;2022-12-07T00:52:15;98003.97;;;6.00
64394;BMP280;50712;49.506;10.400;2022-12-07T00:52:45;98003.97;;;6.00
64394;BMP280;50712;49.506;10.400;2022-12-07T00:53:15;98007.44;;;6.01
64394;BMP280;50712;49.506;10.400;2022-12-07T00:53:46;98012.06;;;6.00
64394;BMP280;50712;49.506;10.400;2022-12-07T00:54:16;97999.78;;;5.99
64394;BMP280;50712;49.506;10.400;2022-12-07T00:54:46;98007.44;;;6.01
64394;BMP280;50712;49.506;10.400;2022-12-07T00:55:16;98003.97;;;6.00
64394;BMP280;50712;49.506;10.400;2022-12-07T00:55:47;98007.44;;;6.01
64394;BMP280;50712;49.506;10.400;2022-12-07T00:56:18;98006.66;;;6.00
64394;BMP280;50712;49.506;10.400;2022-12-07T00:56:49;98002.47;;;5.99
64394;BMP280;50712;49.506;10.400;2022-12-07T00:57:19;97999.78;;;5.99
64394;BMP280;50712;49.506;10.400;2022-12-07T00:57:49;98003.63;;;5.98
64394;BMP280;50712;49.506;10.400;2022-12-07T00:58:19;98004.41;;;5.99
64394;BMP280;50712;49.506;10.400;2022-12-07T00:59:22;98002.88;;;5.98
64394;BMP280;50712;49.506;10.400;2022-12-07T00:59:53;98002.88;;;5.98
64394;BMP280;50712;49.506;10.400;2022-12-07T01:00:27;98004.03;;;5.97
64394;BMP280;50712;49.506;10.400;2022-12-07T01:00:59;98003.28;;;5.96
64394;BMP280;50712;49.506;10.400;2022-12-07T01:01:31;97999.81;;;5.96
64394;BMP280;50712;49.506;10.400;2022-12-07T01:02:01;97998.63;;;5.97
64394;BMP280;50712;49.506;10.400;2022-12-07T01:02:32;97996.34;;;5.95
64394;BMP280;50712;49.506;10.400;2022-12-07T01:03:02;98001.31;;;5.97
64394;BMP280;50712;49.506;10.400;2022-12-07T01:03:33;98004.44;;;5.95
64394;BMP280;50712;49.506;10.400;2022-12-07T01:04:03;98006.00;;;5.96
64394;BMP280;50712;49.506;10.400;2022-12-07T01:04:34;98001.31;;;5.97
64394;BMP280;50712;49.506;10.400;2022-12-07T01:05:04;98005.22;;;5.96
64394;BMP280;50712;49.506;10.400;2022-12-07T01:05:35;98002.53;;;5.96
64394;BMP280;50712;49.506;10.400;2022-12-07T01:06:05;98005.22;;;5.96
64394;BMP280;50712;49.506;10.400;2022-12-07T01:06:35;98005.22;;;5.96
64394;BMP280;50712;49.506;10.400;2022-12-07T01:07:06;98004.44;;;5.95
64394;BMP280;50712;49.506;10.400;2022-12-07T01:07:36;98004.81;;;5.97
64394;BMP280;50712;49.506;10.400;2022-12-07T01:08:06;97999.81;;;5.96
64394;BMP280;50712;49.506;10.400;2022-12-07T01:08:36;98004.03;;;5.97
64394;BMP280;50712;49.506;10.400;2022-12-07T01:09:07;98008.69;;;5.96
64394;BMP280;50712;49.506;10.400;2022-12-07T01:09:37;98000.59;;;5.96
64394;BMP280;50712;49.506;10.400;2022-12-07T01:10:07;98001.31;;;5.97
64394;BMP280;50712;49.506;10.400;2022-12-07T01:10:37;98004.03;;;5.97
64394;BMP280;50712;49.506;10.400;2022-12-07T01:11:09;98004.81;;;5.97
64394;BMP280;50712;49.506;10.400;2022-12-07T01:11:39;97997.88;;;5.96
64394;BMP280;50712;49.506;10.400;2022-12-07T01:12:10;97997.88;;;5.96
64394;BMP280;50712;49.506;10.400;2022-12-07T01:12:40;97999.41;;;5.97
64394;BMP280;50712;49.506;10.400;2022-12-07T01:13:10;97999.41;;;5.97
64394;BMP280;50712;49.506;10.400;2022-12-07T01:13:40;97998.63;;;5.97
64394;BMP280;50712;49.506;10.400;2022-12-07T01:14:11;98001.31;;;5.97
64394;BMP280;50712;49.506;10.400;2022-12-07T01:14:41;98009.44;;;5.97
64394;BMP280;50712;49.506;10.400;2022-12-07T01:15:11;98001.31;;;5.97
64394;BMP280;50712;49.506;10.400;2022-12-07T01:15:42;98001.31;;;5.97
64394;BMP280;50712;49.506;10.400;2022-12-07T01:16:15;98002.09;;;5.97
64394;BMP280;50712;49.506;10.400;2022-12-07T01:16:45;98000.59;;;5.96
64394;BMP280;50712;49.506;10.400;2022-12-07T01:17:15;97995.91;;;5.97
64394;BMP280;50712;49.506;10.400;2022-12-07T01:17:46;97998.63;;;5.97
64394;BMP280;50712;49.506;10.400;2022-12-07T01:18:16;98005.56;;;5.98
64394;BMP280;50712;49.506;10.400;2022-12-07T01:18:47;97999.41;;;5.97
64394;BMP280;50712;49.506;10.400;2022-12-07T01:19:18;98001.31;;;5.97
64394;BMP280;50712;49.506;10.400;2022-12-07T01:19:48;98002.09;;;5.97
64394;BMP280;50712;49.506;10.400;2022-12-07T01:20:18;98004.03;;;5.97
64394;BMP280;50712;49.506;10.400;2022-12-07T01:21:38;97999.41;;;5.97
64394;BMP280;50712;49.506;10.400;2022-12-07T01:22:08;97993.22;;;5.97
64394;BMP280;50712;49.506;10.400;2022-12-07T01:22:39;98001.31;;;5.97
64394;BMP280;50712;49.506;10.400;2022-12-07T01:23:09;97998.63;;;5.97
64394;BMP280;50712;49.506;10.400;2022-12-07T01:23:39;97996.34;;;5.95
64394;BMP280;50712;49.506;10.400;2022-12-07T01:24:10;97999.03;;;5.95
64394;BMP280;50712;49.506;10.400;2022-12-07T01:24:40;97995.56;;;5.95
64394;BMP280;50712;49.506;10.400;2022-12-07T01:25:11;97996.34;;;5.95
64394;BMP280;50712;49.506;10.400;2022-12-07T01:25:41;98007.16;;;5.95
64394;BMP280;50712;49.506;10.400;2022-12-07T01:26:12;98002.91;;;5.94
64394;BMP280;50712;49.506;10.400;2022-12-07T01:26:43;98002.91;;;5.94
64394;BMP280;50712;49.506;10.400;2022-12-07T01:27:13;98010.25;;;5.94
64394;BMP280;50712;49.506;10.400;2022-12-07T01:27:44;98006.78;;;5.93
64394;BMP280;50712;49.506;10.400;2022-12-07T01:28:14;98003.34;;;5.93
64394;BMP280;50712;49.506;10.400;2022-12-07T01:28:44;98006.03;;;5.93
64394;BMP280;50712;49.506;10.400;2022-12-07T01:29:15;98007.97;;;5.92
64394;BMP280;50712;49.506;10.400;2022-12-07T01:29:45;98009.91;;;5.92
64394;BMP280;50712;49.506;10.400;2022-12-07T01:30:16;98013.78;;;5.91
64394;BMP280;50712;49.506;10.400;2022-12-07T01:30:54;98011.06;;;5.91
64394;BMP280;50712;49.506;10.400;2022-12-07T01:31:25;98002.97;;;5.91
64394;BMP280;50712;49.506;10.400;2022-12-07T01:31:55;98008.38;;;5.91
64394;BMP280;50712;49.506;10.400;2022-12-07T01:32:25;98013.78;;;5.91
64394;BMP280;50712;49.506;10.400;2022-12-07T01:32:56;98013.78;;;5.91
64394;BMP280;50712;49.506;10.400;2022-12-07T01:33:27;98013.78;;;5.91
64394;BMP280;50712;49.506;10.400;2022-12-07T01:33:58;98011.50;;;5.89
64394;BMP280;50712;49.506;10.400;2022-12-07T01:34:29;98011.50;;;5.89
64394;BMP280;50712;49.506;10.400;2022-12-07T01:34:59;98016.91;;;5.89
64394;BMP280;50712;49.506;10.400;2022-12-07T01:35:29;98007.25;;;5.88
64394;BMP280;50712;49.506;10.400;2022-12-07T01:36:00;98015.34;;;5.88
64394;BMP280;50712;49.506;10.400;2022-12-07T01:36:32;98009.19;;;5.88
64394;BMP280;50712;49.506;10.400;2022-12-07T01:37:02;98011.09;;;5.87
64394;BMP280;50712;49.506;10.400;2022-12-07T01:37:33;98010.38;;;5.87
64394;BMP280;50712;49.506;10.400;2022-12-07T01:38:04;98013.06;;;5.87
64394;BMP280;50712;49.506;10.400;2022-12-07T01:38:34;98013.06;;;5.87
64394;BMP280;50712;49.506;10.400;2022-12-07T01:39:05;98011.53;;;5.86
64394;BMP280;50712;49.506;10.400;2022-12-07T01:39:36;98009.59;;;5.86
64394;BMP280;50712;49.506;10.400;2022-12-07T01:40:07;98012.31;;;5.86
64394;BMP280;50712;49.506;10.400;2022-12-07T01:40:37;98012.72;;;5.85
64394;BMP280;50712;49.506;10.400;2022-12-07T01:41:07;98007.75;;;5.83
64394;BMP280;50712;49.506;10.400;2022-12-07T01:41:39;98008.47;;;5.84
64394;BMP280;50712;49.506;10.400;2022-12-07T01:42:10;98018.94;;;5.82
64394;BMP280;50712;49.506;10.400;2022-12-07T01:42:41;98015.09;;;5.83
64394;BMP280;50712;49.506;10.400;2022-12-07T01:43:17;98006.19;;;5.82
64394;BMP280;50712;49.506;10.400;2022-12-07T01:45:59;98009.28;;;5.81
64394;BMP280;50712;49.506;10.400;2022-12-07T01:46:21;98009.28;;;5.81
64394;BMP280;50712;49.506;10.400;2022-12-07T01:46:52;98006.25;;;5.79
64394;BMP280;50712;49.506;10.400;2022-12-07T01:47:24;98010.88;;;5.78
64394;BMP280;50712;49.506;10.400;2022-12-07T01:47:55;98005.47;;;5.78
64394;BMP280;50712;49.506;10.400;2022-12-07T01:48:34;98005.91;;;5.77
64394;BMP280;50712;49.506;10.400;2022-12-07T01:49:16;98008.59;;;5.77
64394;BMP280;50712;49.506;10.400;2022-12-07T01:49:47;98007.06;;;5.75
64394;BMP280;50712;49.506;10.400;2022-12-07T01:50:18;98014.38;;;5.75
64394;BMP280;50712;49.506;10.400;2022-12-07T01:50:50;98020.56;;;5.75
64394;BMP280;50712;49.506;10.400;2022-12-07T01:51:21;98021.72;;;5.74
64394;BMP280;50712;49.506;10.400;2022-12-07T01:51:52;98014.38;;;5.75
64394;BMP280;50712;49.506;10.400;2022-12-07T01:52:30;98011.34;;;5.73
64394;BMP280;50712;49.506;10.400;2022-12-07T01:53:02;98008.63;;;5.73
64394;BMP280;50712;49.506;10.400;2022-12-07T01:53:33;98010.56;;;5.72
64394;BMP280;50712;49.506;10.400;2022-12-07T01:54:05;98009.41;;;5.73
64394;BMP280;50712;49.506;10.400;2022-12-07T01:54:36;98008.63;;;5.73
64394;BMP280;50712;49.506;10.400;2022-12-07T01:55:08;98002.03;;;5.74
64394;BMP280;50712;49.506;10.400;2022-12-07T01:55:40;98012.09;;;5.73
64394;BMP280;50712;49.506;10.400;2022-12-07T01:56:13;98006.69;;;5.73
64394;BMP280;50712;49.506;10.400;2022-12-07T01:56:47;98001.28;;;5.73
64394;BMP280;50712;49.506;10.400;2022-12-07T01:57:18;98004.00;;;5.73
64394;BMP280;50712;49.506;10.400;2022-12-07T01:57:49;98007.44;;;5.74
64394;BMP280;50712;49.506;10.400;2022-12-07T01:58:20;98000.09;;;5.74
64394;BMP280;50712;49.506;10.400;2022-12-07T01:58:51;98002.03;;;5.74
64394;BMP280;50712;49.506;10.400;2022-12-07T01:59:23;97999.34;;;5.74
64394;BMP280;50712;49.506;10.400;2022-12-07T01:59:55;98000.88;;;5.75
64394;BMP280;50712;49.506;10.400;2022-12-07T02:00:25;97993.94;;;5.74
64394;BMP280;50712;49.506;10.400;2022-12-07T02:00:56;98000.09;;;5.74
64394;BMP280;50712;49.506;10.400;2022-12-07T02:01:26;97998.19;;;5.75
64394;BMP280;50712;49.506;10.400;2022-12-07T02:01:56;97995.47;;;5.75
64394;BMP280;50712;49.506;10.400;2022-12-07T02:02:30;97990.84;;;5.75
64394;BMP280;50712;49.506;10.400;2022-12-07T02:03:36;97996.25;;;5.75
64394;BMP280;50712;49.506;10.400;2022-12-07T02:04:07;97998.19;;;5.75
64394;BMP280;50712;49.506;10.400;2022-12-07T02:04:37;97996.25;;;5.75
64394;BMP280;50712;49.506;10.400;2022-12-07T02:05:08;98000.88;;;5.75
64394;BMP280;50712;49.506;10.400;2022-12-07T02:05:38;97996.25;;;5.75
64394;BMP280;50712;49.506;10.400;2022-12-07T02:06:11;97990.06;;;5.75
64394;BMP280;50712;49.506;10.400;2022-12-07T02:06:42;97990.84;;;5.75
64394;BMP280;50712;49.506;10.400;2022-12-07T02:07:13;97987.38;;;5.75
64394;BMP280;50712;49.506;10.400;2022-12-07T02:07:43;97985.44;;;5.75
64394;BMP280;50712;49.506;10.400;2022-12-07T02:08:14;97983.50;;;5.76
64394;BMP280;50712;49.506;10.400;2022-12-07T02:08:45;97988.13;;;5.75
64394;BMP280;50712;49.506;10.400;2022-12-07T02:09:16;97978.09;;;5.76
64394;BMP280;50712;49.506;10.400;2022-12-07T02:09:46;97980.03;;;5.75
64394;BMP280;50712;49.506;10.400;2022-12-07T02:10:26;97971.91;;;5.75
64394;BMP280;50712;49.506;10.400;2022-12-07T02:10:57;97971.53;;;5.77
64394;BMP280;50712;49.506;10.400;2022-12-07T02:11:29;97972.69;;;5.76
64394;BMP280;50712;49.506;10.400;2022-12-07T02:11:59;97971.53;;;5.77
64394;BMP280;50712;49.506;10.400;2022-12-07T02:12:29;97976.16;;;5.77
64394;BMP280;50712;49.506;10.400;2022-12-07T02:13:45;97976.16;;;5.77
64394;BMP280;50712;49.506;10.400;2022-12-07T02:14:15;97975.72;;;5.78
64394;BMP280;50712;49.506;10.400;2022-12-07T02:14:46;97975.38;;;5.76
64394;BMP280;50712;49.506;10.400;2022-12-07T02:15:16;97977.66;;;5.78
64394;BMP280;50712;49.506;10.400;2022-12-07T02:17:24;97974.22;;;5.77
64394;BMP280;50712;49.506;10.400;2022-12-07T02:18:16;97976.50;;;5.79
64394;BMP280;50712;49.506;10.400;2022-12-07T02:20:11;97968.03;;;5.77
64394;BMP280;50712;49.506;10.400;2022-12-07T02:21:45;97968.03;;;5.77
64394;BMP280;50712;49.506;10.400;2022-12-07T02:25:58;97964.91;;;5.78
64394;BMP280;50712;49.506;10.400;2022-12-07T02:28:12;97964.16;;;5.78
64394;BMP280;50712;49.506;10.400;2022-12-07T02:29:07;97961.44;;;5.78
64394;BMP280;50712;49.506;10.400;2022-12-07T02:29:42;97966.13;;;5.77
64394;BMP280;50712;49.506;10.400;2022-12-07T02:30:15;97959.94;;;5.77
64394;BMP280;50712;49.506;10.400;2022-12-07T02:30:46;97962.63;;;5.77
64394;BMP280;50712;49.506;10.400;2022-12-07T02:31:19;97961.44;;;5.78
64394;BMP280;50712;49.506;10.400;2022-12-07T02:31:54;97966.13;;;5.77
64394;BMP280;50712;49.506;10.400;2022-12-07T02:32:32;97968.81;;;5.77
64394;BMP280;50712;49.506;10.400;2022-12-07T02:33:08;97964.56;;;5.76
64394;BMP280;50712;49.506;10.400;2022-12-07T02:33:41;97961.44;;;5.78
64394;BMP280;50712;49.506;10.400;2022-12-07T02:34:55;97966.13;;;5.77
64394;BMP280;50712;49.506;10.400;2022-12-07T02:35:56;97958.00;;;5.77
64394;BMP280;50712;49.506;10.400;2022-12-07T02:36:30;97964.16;;;5.78
64394;BMP280;50712;49.506;10.400;2022-12-07T02:37:05;97958.75;;;5.78
64394;BMP280;50712;49.506;10.400;2022-12-07T02:38:39;97967.63;;;5.78
64394;BMP280;50712;49.506;10.400;2022-12-07T02:38:44;97962.22;;;5.78
64394;BMP280;50712;49.506;10.400;2022-12-07T02:39:19;97961.44;;;5.78
64394;BMP280;50712;49.506;10.400;2022-12-07T02:39:54;97963.00;;;5.79
64394;BMP280;50712;49.506;10.400;2022-12-07T02:40:29;97964.16;;;5.78
64394;BMP280;50712;49.506;10.400;2022-12-07T02:41:40;97963.41;;;5.77
64394;BMP280;50712;49.506;10.400;2022-12-07T02:42:17;97962.63;;;5.77
64394;BMP280;50712;49.506;10.400;2022-12-07T02:42:50;97959.94;;;5.77
64394;BMP280;50712;49.506;10.400;2022-12-07T02:43:28;97965.34;;;5.77
64394;BMP280;50712;49.506;10.400;2022-12-07T02:43:59;97961.09;;;5.75
64394;BMP280;50712;49.506;10.400;2022-12-07T02:44:31;97951.44;;;5.74
64394;BMP280;50712;49.506;10.400;2022-12-07T02:45:01;97953.00;;;5.75
64394;BMP280;50712;49.506;10.400;2022-12-07T02:45:32;97959.56;;;5.74
64394;BMP280;50712;49.506;10.400;2022-12-07T02:46:06;97956.84;;;5.74
64394;BMP280;50712;49.506;10.400;2022-12-07T02:46:38;97964.97;;;5.74
64394;BMP280;50712;49.506;10.400;2022-12-07T02:47:10;97969.59;;;5.74
64394;BMP280;50712;49.506;10.400;2022-12-07T02:47:42;97968.88;;;5.73
64394;BMP280;50712;49.506;10.400;2022-12-07T02:48:13;97964.63;;;5.72
64394;BMP280;50712;49.506;10.400;2022-12-07T02:48:45;97972.72;;;5.72
64394;BMP280;50712;49.506;10.400;2022-12-07T02:49:16;97970.03;;;5.72
64394;BMP280;50712;49.506;10.400;2022-12-07T02:49:46;97973.88;;;5.71
64394;BMP280;50712;49.506;10.400;2022-12-07T02:50:18;97972.38;;;5.70
64394;BMP280;50712;49.506;10.400;2022-12-07T02:50:50;97971.63;;;5.70
64394;BMP280;50712;49.506;10.400;2022-12-07T02:51:21;97965.47;;;5.69
64394;BMP280;50712;49.506;10.400;2022-12-07T02:51:51;97964.69;;;5.69
64394;BMP280;50712;49.506;10.400;2022-12-07T02:52:22;97964.69;;;5.69
64394;BMP280;50712;49.506;10.400;2022-12-07T02:52:52;97959.28;;;5.69
64394;BMP280;50712;49.506;10.400;2022-12-07T02:54:09;97961.22;;;5.68
64394;BMP280;50712;49.506;10.400;2022-12-07T02:54:41;97961.63;;;5.67
64394;BMP280;50712;49.506;10.400;2022-12-07T02:55:12;97958.16;;;5.66
64394;BMP280;50712;49.506;10.400;2022-12-07T02:55:42;97951.22;;;5.65
64394;BMP280;50712;49.506;10.400;2022-12-07T02:56:48;97956.63;;;5.65
64394;BMP280;50712;49.506;10.400;2022-12-07T02:59:26;97945.47;;;5.63
64394;BMP280;50712;49.506;10.400;2022-12-07T03:00:41;97944.69;;;5.63
64394;BMP280;50712;49.506;10.400;2022-12-07T03:01:36;97939.28;;;5.63
64394;BMP280;50712;49.506;10.400;2022-12-07T03:03:03;97931.97;;;5.63
64394;BMP280;50712;49.506;10.400;2022-12-07T03:03:34;97938.53;;;5.62
64394;BMP280;50712;49.506;10.400;2022-12-07T03:05:25;97937.75;;;5.62
64394;BMP280;50712;49.506;10.400;2022-12-07T03:06:36;97931.56;;;5.61
64394;BMP280;50712;49.506;10.400;2022-12-07T03:07:32;97940.47;;;5.62
64394;BMP280;50712;49.506;10.400;2022-12-07T03:08:38;97940.47;;;5.62
64394;BMP280;50712;49.506;10.400;2022-12-07T03:09:14;97953.97;;;5.62
64394;BMP280;50712;49.506;10.400;2022-12-07T03:09:51;97950.50;;;5.61
64394;BMP280;50712;49.506;10.400;2022-12-07T03:11:30;97949.00;;;5.60
64394;BMP280;50712;49.506;10.400;2022-12-07T03:12:13;97952.47;;;5.61
64394;BMP280;50712;49.506;10.400;2022-12-07T03:14:09;97945.91;;;5.58
64394;BMP280;50712;49.506;10.400;2022-12-07T03:14:47;97954.78;;;5.59
64394;BMP280;50712;49.506;10.400;2022-12-07T03:15:21;97954.00;;;5.58
64394;BMP280;50712;49.506;10.400;2022-12-07T03:15:59;97950.16;;;5.59
64394;BMP280;50712;49.506;10.400;2022-12-07T03:16:52;97954.78;;;5.59
64394;BMP280;50712;49.506;10.400;2022-12-07T03:17:24;97947.44;;;5.59
64394;BMP280;50712;49.506;10.400;2022-12-07T03:17:56;97952.84;;;5.59
64394;BMP280;50712;49.506;10.400;2022-12-07T03:18:29;97949.38;;;5.59
64394;BMP280;50712;49.506;10.400;2022-12-07T03:19:04;97954.38;;;5.60
64394;BMP280;50712;49.506;10.400;2022-12-07T03:19:35;97959.03;;;5.60
64394;BMP280;50712;49.506;10.400;2022-12-07T03:20:07;97951.69;;;5.60
64394;BMP280;50712;49.506;10.400;2022-12-07T03:20:38;97954.38;;;5.60
64394;BMP280;50712;49.506;10.400;2022-12-07T03:21:22;97945.50;;;5.60
64394;BMP280;50712;49.506;10.400;2022-12-07T03:21:55;97945.50;;;5.60
64394;BMP280;50712;49.506;10.400;2022-12-07T03:22:27;97944.75;;;5.59
64394;BMP280;50712;49.506;10.400;2022-12-07T03:22:58;97940.09;;;5.60
64394;BMP280;50712;49.506;10.400;2022-12-07T03:23:29;97941.28;;;5.59
64394;BMP280;50712;49.506;10.400;2022-12-07T03:24:04;97944.75;;;5.59
64394;BMP280;50712;49.506;10.400;2022-12-07T03:24:37;97942.03;;;5.59
64394;BMP280;50712;49.506;10.400;2022-12-07T03:25:10;97939.34;;;5.59
64394;BMP280;50712;49.506;10.400;2022-12-07T03:25:46;97942.03;;;5.59
64394;BMP280;50712;49.506;10.400;2022-12-07T03:26:17;97943.97;;;5.59
64394;BMP280;50712;49.506;10.400;2022-12-07T03:26:50;97939.75;;;5.58
64394;BMP280;50712;49.506;10.400;2022-12-07T03:27:23;97943.19;;;5.58
64394;BMP280;50712;49.506;10.400;2022-12-07T03:27:56;97945.16;;;5.58
64394;BMP280;50712;49.506;10.400;2022-12-07T03:28:29;97944.41;;;5.57
64394;BMP280;50712;49.506;10.400;2022-12-07T03:29:05;97940.91;;;5.57
64394;BMP280;50712;49.506;10.400;2022-12-07T03:29:37;97940.91;;;5.57
64394;BMP280;50712;49.506;10.400;2022-12-07T03:30:10;97942.09;;;5.56